RKPK/PUS METAR and TAF weather

Enter ICAO airport designator
Station Type Date Time Source
RKPK METAR 2024/04/15 08:00 UTC NOAA

RKPK 150800Z 35001KT 2400 RA BR SCT005 BKN010 OVC020 16/15 Q1011


Station Type Date Time Source
RKPK Decoded METAR 2024/04/15 08:00 UTC NOAA

Pusan / Kimhae International Airport, Korea, South (RKPK) 35-11N 128-56E 6M
Apr 15, 2024 - 04:00 AM EDT / 2024.04.15 0800 UTC
Wind: from the N (350 degrees) at 1 MPH (1 KT):0
Visibility: 1 mile(s):0
Sky conditions: overcast
Weather: rain; mist
Temperature: 60 F (16 C)
Dew Point: 59 F (15 C)
Relative Humidity: 93%
Pressure (altimeter): 29.85 in. Hg (1011 hPa)
ob: RKPK 150800Z 35001KT 2400 RA BR SCT005 BKN010 OVC020 16/15 Q1011
cycle: 8

Station Type Date Time Source
RKPK TAF 2024/04/15 06:09 UTC NOAA